sensor_id;sensor_type;location;lat;lon;timestamp;P1;durP1;ratioP1;P2;durP2;ratioP2
4889;SDS011;2459;42.268;23.112;2023-04-15T00:00:05;19.43;;;9.00;;
4889;SDS011;2459;42.268;23.112;2023-04-15T00:02:33;15.50;;;8.77;;
4889;SDS011;2459;42.268;23.112;2023-04-15T00:05:01;43.20;;;16.90;;
4889;SDS011;2459;42.268;23.112;2023-04-15T00:07:27;26.20;;;11.33;;
4889;SDS011;2459;42.268;23.112;2023-04-15T00:09:54;24.30;;;10.70;;
4889;SDS011;2459;42.268;23.112;2023-04-15T00:12:21;16.73;;;9.60;;
4889;SDS011;2459;42.268;23.112;2023-04-15T00:14:48;19.03;;;8.50;;
4889;SDS011;2459;42.268;23.112;2023-04-15T00:17:15;16.10;;;7.33;;
4889;SDS011;2459;42.268;23.112;2023-04-15T00:19:43;16.47;;;8.03;;
4889;SDS011;2459;42.268;23.112;2023-04-15T00:22:10;14.40;;;7.63;;
4889;SDS011;2459;42.268;23.112;2023-04-15T00:24:37;15.33;;;7.63;;
4889;SDS011;2459;42.268;23.112;2023-04-15T00:27:04;15.63;;;6.70;;
4889;SDS011;2459;42.268;23.112;2023-04-15T00:29:30;14.07;;;6.97;;
4889;SDS011;2459;42.268;23.112;2023-04-15T00:31:57;16.40;;;7.17;;
4889;SDS011;2459;42.268;23.112;2023-04-15T00:34:23;11.60;;;7.87;;
4889;SDS011;2459;42.268;23.112;2023-04-15T00:36:51;19.97;;;9.60;;
4889;SDS011;2459;42.268;23.112;2023-04-15T00:39:18;21.43;;;8.53;;
4889;SDS011;2459;42.268;23.112;2023-04-15T00:41:44;17.43;;;8.57;;
4889;SDS011;2459;42.268;23.112;2023-04-15T00:44:11;13.87;;;7.57;;
4889;SDS011;2459;42.268;23.112;2023-04-15T00:46:38;13.50;;;7.30;;
4889;SDS011;2459;42.268;23.112;2023-04-15T00:49:05;21.13;;;6.80;;
4889;SDS011;2459;42.268;23.112;2023-04-15T00:51:32;20.07;;;6.83;;
4889;SDS011;2459;42.268;23.112;2023-04-15T00:54:01;23.13;;;8.97;;
4889;SDS011;2459;42.268;23.112;2023-04-15T00:56:32;12.23;;;5.77;;
4889;SDS011;2459;42.268;23.112;2023-04-15T00:59:00;11.93;;;6.40;;
4889;SDS011;2459;42.268;23.112;2023-04-15T01:01:27;13.80;;;6.30;;
4889;SDS011;2459;42.268;23.112;2023-04-15T01:03:55;5.57;;;4.67;;
4889;SDS011;2459;42.268;23.112;2023-04-15T01:06:23;11.00;;;5.27;;
4889;SDS011;2459;42.268;23.112;2023-04-15T01:08:51;15.20;;;5.53;;
4889;SDS011;2459;42.268;23.112;2023-04-15T01:11:22;11.40;;;5.77;;
4889;SDS011;2459;42.268;23.112;2023-04-15T01:13:50;14.60;;;5.13;;
4889;SDS011;2459;42.268;23.112;2023-04-15T01:16:17;5.00;;;3.87;;
4889;SDS011;2459;42.268;23.112;2023-04-15T01:18:43;9.27;;;4.70;;
4889;SDS011;2459;42.268;23.112;2023-04-15T01:21:10;17.23;;;6.20;;
4889;SDS011;2459;42.268;23.112;2023-04-15T01:23:37;11.80;;;6.00;;
4889;SDS011;2459;42.268;23.112;2023-04-15T01:26:06;9.37;;;5.30;;
4889;SDS011;2459;42.268;23.112;2023-04-15T01:28:33;10.63;;;5.43;;
4889;SDS011;2459;42.268;23.112;2023-04-15T01:31:06;20.87;;;12.53;;
4889;SDS011;2459;42.268;23.112;2023-04-15T01:33:32;9.80;;;6.63;;
4889;SDS011;2459;42.268;23.112;2023-04-15T01:35:59;12.03;;;6.23;;
4889;SDS011;2459;42.268;23.112;2023-04-15T01:38:28;13.83;;;7.73;;
4889;SDS011;2459;42.268;23.112;2023-04-15T01:40:55;15.47;;;6.20;;
4889;SDS011;2459;42.268;23.112;2023-04-15T01:43:23;11.60;;;7.67;;
4889;SDS011;2459;42.268;23.112;2023-04-15T01:45:50;13.97;;;7.23;;
4889;SDS011;2459;42.268;23.112;2023-04-15T01:48:17;14.90;;;6.43;;
4889;SDS011;2459;42.268;23.112;2023-04-15T01:50:43;12.90;;;6.87;;
4889;SDS011;2459;42.268;23.112;2023-04-15T01:53:10;18.90;;;8.57;;
4889;SDS011;2459;42.268;23.112;2023-04-15T01:55:37;11.77;;;6.60;;
4889;SDS011;2459;42.268;23.112;2023-04-15T01:58:03;18.20;;;6.53;;
4889;SDS011;2459;42.268;23.112;2023-04-15T02:00:31;11.07;;;7.20;;
4889;SDS011;2459;42.268;23.112;2023-04-15T02:02:58;8.00;;;5.50;;
4889;SDS011;2459;42.268;23.112;2023-04-15T02:05:24;9.43;;;6.37;;
4889;SDS011;2459;42.268;23.112;2023-04-15T02:07:51;11.10;;;6.43;;
4889;SDS011;2459;42.268;23.112;2023-04-15T02:10:18;15.93;;;7.43;;
4889;SDS011;2459;42.268;23.112;2023-04-15T02:12:45;12.00;;;6.80;;
4889;SDS011;2459;42.268;23.112;2023-04-15T02:15:11;15.90;;;6.07;;
4889;SDS011;2459;42.268;23.112;2023-04-15T02:17:39;12.53;;;7.00;;
4889;SDS011;2459;42.268;23.112;2023-04-15T02:20:10;17.73;;;8.10;;
4889;SDS011;2459;42.268;23.112;2023-04-15T02:22:36;11.77;;;7.67;;
4889;SDS011;2459;42.268;23.112;2023-04-15T02:25:03;19.17;;;7.60;;
4889;SDS011;2459;42.268;23.112;2023-04-15T02:27:30;15.63;;;6.30;;
4889;SDS011;2459;42.268;23.112;2023-04-15T02:29:56;12.77;;;6.20;;
4889;SDS011;2459;42.268;23.112;2023-04-15T02:32:23;10.50;;;6.63;;
4889;SDS011;2459;42.268;23.112;2023-04-15T02:34:51;11.37;;;7.03;;
4889;SDS011;2459;42.268;23.112;2023-04-15T02:37:17;9.77;;;6.23;;
4889;SDS011;2459;42.268;23.112;2023-04-15T02:39:44;17.50;;;6.40;;
4889;SDS011;2459;42.268;23.112;2023-04-15T02:42:11;10.33;;;6.43;;
4889;SDS011;2459;42.268;23.112;2023-04-15T02:44:37;11.40;;;7.03;;
4889;SDS011;2459;42.268;23.112;2023-04-15T02:47:06;9.60;;;4.77;;
4889;SDS011;2459;42.268;23.112;2023-04-15T02:49:33;11.23;;;5.90;;
4889;SDS011;2459;42.268;23.112;2023-04-15T02:52:00;22.20;;;13.77;;
4889;SDS011;2459;42.268;23.112;2023-04-15T02:54:27;17.63;;;11.90;;
4889;SDS011;2459;42.268;23.112;2023-04-15T02:56:57;14.40;;;8.50;;
4889;SDS011;2459;42.268;23.112;2023-04-15T02:59:23;10.20;;;6.73;;
4889;SDS011;2459;42.268;23.112;2023-04-15T03:01:50;14.83;;;6.53;;
4889;SDS011;2459;42.268;23.112;2023-04-15T03:04:16;10.53;;;6.30;;
4889;SDS011;2459;42.268;23.112;2023-04-15T03:06:42;10.30;;;5.23;;
4889;SDS011;2459;42.268;23.112;2023-04-15T03:09:10;4.33;;;3.83;;
4889;SDS011;2459;42.268;23.112;2023-04-15T03:11:37;4.03;;;3.60;;
4889;SDS011;2459;42.268;23.112;2023-04-15T03:14:05;7.23;;;3.97;;
4889;SDS011;2459;42.268;23.112;2023-04-15T03:16:32;12.80;;;8.97;;
4889;SDS011;2459;42.268;23.112;2023-04-15T03:18:58;10.60;;;7.50;;
4889;SDS011;2459;42.268;23.112;2023-04-15T03:21:25;5.83;;;3.70;;
4889;SDS011;2459;42.268;23.112;2023-04-15T03:23:51;25.00;;;9.27;;
4889;SDS011;2459;42.268;23.112;2023-04-15T03:26:26;32.13;;;10.63;;
4889;SDS011;2459;42.268;23.112;2023-04-15T03:28:53;18.27;;;8.60;;
4889;SDS011;2459;42.268;23.112;2023-04-15T03:31:20;35.30;;;7.70;;
4889;SDS011;2459;42.268;23.112;2023-04-15T03:33:46;27.33;;;6.83;;
4889;SDS011;2459;42.268;23.112;2023-04-15T03:36:13;14.63;;;6.20;;
4889;SDS011;2459;42.268;23.112;2023-04-15T03:38:39;11.80;;;6.80;;
4889;SDS011;2459;42.268;23.112;2023-04-15T03:41:06;18.97;;;8.17;;
4889;SDS011;2459;42.268;23.112;2023-04-15T03:43:34;11.20;;;6.33;;
4889;SDS011;2459;42.268;23.112;2023-04-15T03:46:01;7.53;;;4.80;;
4889;SDS011;2459;42.268;23.112;2023-04-15T03:48:27;9.57;;;5.90;;
4889;SDS011;2459;42.268;23.112;2023-04-15T03:50:54;12.33;;;4.93;;
4889;SDS011;2459;42.268;23.112;2023-04-15T03:53:21;9.53;;;4.77;;
4889;SDS011;2459;42.268;23.112;2023-04-15T03:55:48;13.57;;;6.70;;
4889;SDS011;2459;42.268;23.112;2023-04-15T03:58:15;16.83;;;6.40;;
4889;SDS011;2459;42.268;23.112;2023-04-15T04:00:43;8.80;;;4.77;;
4889;SDS011;2459;42.268;23.112;2023-04-15T04:03:09;27.90;;;5.00;;
4889;SDS011;2459;42.268;23.112;2023-04-15T04:05:35;9.80;;;5.30;;
4889;SDS011;2459;42.268;23.112;2023-04-15T04:08:03;18.43;;;5.00;;
4889;SDS011;2459;42.268;23.112;2023-04-15T04:10:29;19.50;;;7.97;;
4889;SDS011;2459;42.268;23.112;2023-04-15T04:12:56;16.97;;;7.50;;
4889;SDS011;2459;42.268;23.112;2023-04-15T04:15:22;15.80;;;8.20;;
4889;SDS011;2459;42.268;23.112;2023-04-15T04:17:50;21.43;;;10.00;;
4889;SDS011;2459;42.268;23.112;2023-04-15T04:20:17;10.60;;;6.93;;
4889;SDS011;2459;42.268;23.112;2023-04-15T04:22:43;14.63;;;7.67;;
4889;SDS011;2459;42.268;23.112;2023-04-15T04:25:10;13.47;;;7.50;;
4889;SDS011;2459;42.268;23.112;2023-04-15T04:27:36;18.17;;;7.53;;
4889;SDS011;2459;42.268;23.112;2023-04-15T04:30:03;15.83;;;7.50;;
4889;SDS011;2459;42.268;23.112;2023-04-15T04:32:30;8.00;;;4.60;;
4889;SDS011;2459;42.268;23.112;2023-04-15T04:34:58;15.80;;;9.17;;
4889;SDS011;2459;42.268;23.112;2023-04-15T04:37:25;24.23;;;6.60;;
4889;SDS011;2459;42.268;23.112;2023-04-15T04:39:51;17.80;;;7.27;;
4889;SDS011;2459;42.268;23.112;2023-04-15T04:42:18;16.23;;;8.83;;
4889;SDS011;2459;42.268;23.112;2023-04-15T04:44:44;12.50;;;6.10;;
4889;SDS011;2459;42.268;23.112;2023-04-15T04:47:11;16.83;;;7.53;;
4889;SDS011;2459;42.268;23.112;2023-04-15T04:49:38;15.27;;;7.90;;
4889;SDS011;2459;42.268;23.112;2023-04-15T04:52:06;27.30;;;8.20;;
4889;SDS011;2459;42.268;23.112;2023-04-15T04:54:33;18.13;;;10.10;;
4889;SDS011;2459;42.268;23.112;2023-04-15T04:56:59;20.83;;;9.30;;
4889;SDS011;2459;42.268;23.112;2023-04-15T04:59:27;32.40;;;13.30;;
4889;SDS011;2459;42.268;23.112;2023-04-15T05:01:54;29.27;;;14.03;;
4889;SDS011;2459;42.268;23.112;2023-04-15T05:04:21;45.93;;;18.00;;
4889;SDS011;2459;42.268;23.112;2023-04-15T05:06:47;35.00;;;16.67;;
4889;SDS011;2459;42.268;23.112;2023-04-15T05:09:15;40.60;;;15.90;;
4889;SDS011;2459;42.268;23.112;2023-04-15T05:11:41;34.77;;;14.17;;
4889;SDS011;2459;42.268;23.112;2023-04-15T05:14:08;28.87;;;13.73;;
4889;SDS011;2459;42.268;23.112;2023-04-15T05:16:34;36.23;;;14.17;;
4889;SDS011;2459;42.268;23.112;2023-04-15T05:19:01;24.07;;;12.67;;
4889;SDS011;2459;42.268;23.112;2023-04-15T05:21:27;22.97;;;13.60;;
4889;SDS011;2459;42.268;23.112;2023-04-15T05:23:55;31.40;;;14.10;;
4889;SDS011;2459;42.268;23.112;2023-04-15T05:26:23;30.67;;;13.00;;
4889;SDS011;2459;42.268;23.112;2023-04-15T05:28:49;29.97;;;15.03;;
4889;SDS011;2459;42.268;23.112;2023-04-15T05:31:16;31.40;;;14.77;;
4889;SDS011;2459;42.268;23.112;2023-04-15T05:33:42;22.77;;;12.97;;
4889;SDS011;2459;42.268;23.112;2023-04-15T05:36:09;21.60;;;12.73;;
4889;SDS011;2459;42.268;23.112;2023-04-15T05:38:38;22.33;;;12.00;;
4889;SDS011;2459;42.268;23.112;2023-04-15T05:41:05;26.63;;;14.53;;
4889;SDS011;2459;42.268;23.112;2023-04-15T05:43:33;26.77;;;14.23;;
4889;SDS011;2459;42.268;23.112;2023-04-15T05:45:59;33.03;;;15.90;;
4889;SDS011;2459;42.268;23.112;2023-04-15T05:48:26;34.90;;;15.03;;
4889;SDS011;2459;42.268;23.112;2023-04-15T05:50:52;33.17;;;12.93;;
4889;SDS011;2459;42.268;23.112;2023-04-15T05:53:19;37.33;;;21.37;;
4889;SDS011;2459;42.268;23.112;2023-04-15T05:55:45;28.67;;;14.43;;
4889;SDS011;2459;42.268;23.112;2023-04-15T05:58:12;27.67;;;14.37;;
4889;SDS011;2459;42.268;23.112;2023-04-15T06:00:39;23.00;;;13.10;;
4889;SDS011;2459;42.268;23.112;2023-04-15T06:03:06;28.47;;;14.30;;
4889;SDS011;2459;42.268;23.112;2023-04-15T06:05:32;13.77;;;8.13;;
4889;SDS011;2459;42.268;23.112;2023-04-15T06:07:59;19.20;;;9.33;;
4889;SDS011;2459;42.268;23.112;2023-04-15T06:10:26;17.23;;;9.60;;
4889;SDS011;2459;42.268;23.112;2023-04-15T06:12:52;18.97;;;9.40;;
4889;SDS011;2459;42.268;23.112;2023-04-15T06:15:19;23.00;;;10.00;;
4889;SDS011;2459;42.268;23.112;2023-04-15T06:17:47;29.20;;;8.87;;
4889;SDS011;2459;42.268;23.112;2023-04-15T06:20:13;36.03;;;15.97;;
4889;SDS011;2459;42.268;23.112;2023-04-15T06:22:40;17.13;;;8.50;;
4889;SDS011;2459;42.268;23.112;2023-04-15T06:25:07;23.03;;;8.70;;
4889;SDS011;2459;42.268;23.112;2023-04-15T06:27:33;15.33;;;7.43;;
4889;SDS011;2459;42.268;23.112;2023-04-15T06:30:00;57.00;;;23.40;;
4889;SDS011;2459;42.268;23.112;2023-04-15T06:32:26;117.30;;;33.20;;
4889;SDS011;2459;42.268;23.112;2023-04-15T06:34:54;166.67;;;39.67;;
4889;SDS011;2459;42.268;23.112;2023-04-15T06:37:21;12.40;;;5.63;;
4889;SDS011;2459;42.268;23.112;2023-04-15T06:39:47;6.73;;;3.70;;
4889;SDS011;2459;42.268;23.112;2023-04-15T06:42:14;13.63;;;6.50;;
4889;SDS011;2459;42.268;23.112;2023-04-15T06:44:40;7.67;;;4.07;;
4889;SDS011;2459;42.268;23.112;2023-04-15T06:47:10;14.23;;;7.70;;
4889;SDS011;2459;42.268;23.112;2023-04-15T06:49:37;9.87;;;5.27;;
4889;SDS011;2459;42.268;23.112;2023-04-15T06:52:05;12.00;;;7.10;;
4889;SDS011;2459;42.268;23.112;2023-04-15T06:54:32;11.50;;;5.20;;
4889;SDS011;2459;42.268;23.112;2023-04-15T06:56:58;9.47;;;5.40;;
4889;SDS011;2459;42.268;23.112;2023-04-15T06:59:25;9.30;;;4.90;;
4889;SDS011;2459;42.268;23.112;2023-04-15T07:01:52;11.30;;;6.17;;
4889;SDS011;2459;42.268;23.112;2023-04-15T07:04:18;12.63;;;5.07;;
4889;SDS011;2459;42.268;23.112;2023-04-15T07:06:45;10.47;;;5.63;;
4889;SDS011;2459;42.268;23.112;2023-04-15T07:09:13;15.10;;;8.00;;
4889;SDS011;2459;42.268;23.112;2023-04-15T07:11:39;39.70;;;7.60;;
4889;SDS011;2459;42.268;23.112;2023-04-15T07:14:06;18.30;;;8.30;;
4889;SDS011;2459;42.268;23.112;2023-04-15T07:16:32;16.90;;;8.60;;
4889;SDS011;2459;42.268;23.112;2023-04-15T07:18:59;22.33;;;5.67;;
4889;SDS011;2459;42.268;23.112;2023-04-15T07:21:25;16.60;;;7.90;;
4889;SDS011;2459;42.268;23.112;2023-04-15T07:23:53;21.10;;;9.20;;
4889;SDS011;2459;42.268;23.112;2023-04-15T07:26:21;26.53;;;13.03;;
4889;SDS011;2459;42.268;23.112;2023-04-15T07:28:48;7.67;;;5.20;;
4889;SDS011;2459;42.268;23.112;2023-04-15T07:31:14;5.20;;;2.90;;
4889;SDS011;2459;42.268;23.112;2023-04-15T07:33:41;7.73;;;3.83;;
4889;SDS011;2459;42.268;23.112;2023-04-15T07:36:08;5.33;;;3.40;;
4889;SDS011;2459;42.268;23.112;2023-04-15T07:38:34;21.10;;;4.33;;
4889;SDS011;2459;42.268;23.112;2023-04-15T07:41:01;8.10;;;3.00;;
4889;SDS011;2459;42.268;23.112;2023-04-15T07:43:30;4.63;;;2.03;;
4889;SDS011;2459;42.268;23.112;2023-04-15T07:45:56;10.83;;;2.47;;
4889;SDS011;2459;42.268;23.112;2023-04-15T07:48:23;6.67;;;1.60;;
4889;SDS011;2459;42.268;23.112;2023-04-15T07:50:49;10.23;;;2.30;;
4889;SDS011;2459;42.268;23.112;2023-04-15T07:53:16;7.90;;;2.53;;
4889;SDS011;2459;42.268;23.112;2023-04-15T07:55:43;13.50;;;2.77;;
4889;SDS011;2459;42.268;23.112;2023-04-15T07:58:09;5.80;;;2.30;;
4889;SDS011;2459;42.268;23.112;2023-04-15T08:00:37;12.50;;;2.93;;
4889;SDS011;2459;42.268;23.112;2023-04-15T08:03:04;9.47;;;2.07;;
4889;SDS011;2459;42.268;23.112;2023-04-15T08:05:31;7.80;;;2.60;;
4889;SDS011;2459;42.268;23.112;2023-04-15T08:07:58;4.67;;;2.80;;
4889;SDS011;2459;42.268;23.112;2023-04-15T08:10:25;6.40;;;1.90;;
4889;SDS011;2459;42.268;23.112;2023-04-15T08:12:51;17.40;;;7.00;;
4889;SDS011;2459;42.268;23.112;2023-04-15T08:15:18;4.73;;;1.60;;
4889;SDS011;2459;42.268;23.112;2023-04-15T08:17:47;3.90;;;2.20;;
4889;SDS011;2459;42.268;23.112;2023-04-15T08:20:13;4.50;;;1.90;;
4889;SDS011;2459;42.268;23.112;2023-04-15T08:22:40;13.10;;;2.03;;
4889;SDS011;2459;42.268;23.112;2023-04-15T08:25:07;14.60;;;2.20;;
4889;SDS011;2459;42.268;23.112;2023-04-15T08:27:34;13.90;;;2.87;;
4889;SDS011;2459;42.268;23.112;2023-04-15T08:30:00;12.43;;;3.53;;
4889;SDS011;2459;42.268;23.112;2023-04-15T08:32:27;5.90;;;2.33;;
4889;SDS011;2459;42.268;23.112;2023-04-15T08:34:55;3.50;;;1.50;;
4889;SDS011;2459;42.268;23.112;2023-04-15T08:37:22;16.50;;;3.00;;
4889;SDS011;2459;42.268;23.112;2023-04-15T08:39:48;11.27;;;2.97;;
4889;SDS011;2459;42.268;23.112;2023-04-15T08:42:15;4.80;;;2.33;;
4889;SDS011;2459;42.268;23.112;2023-04-15T08:44:42;2.83;;;1.47;;
4889;SDS011;2459;42.268;23.112;2023-04-15T08:47:09;8.20;;;1.83;;
4889;SDS011;2459;42.268;23.112;2023-04-15T08:49:38;6.53;;;2.00;;
4889;SDS011;2459;42.268;23.112;2023-04-15T08:52:07;3.43;;;1.40;;
4889;SDS011;2459;42.268;23.112;2023-04-15T08:54:34;2.17;;;1.50;;
4889;SDS011;2459;42.268;23.112;2023-04-15T08:57:00;4.87;;;1.40;;
4889;SDS011;2459;42.268;23.112;2023-04-15T08:59:28;7.70;;;2.20;;
4889;SDS011;2459;42.268;23.112;2023-04-15T09:01:55;7.27;;;1.70;;
4889;SDS011;2459;42.268;23.112;2023-04-15T09:04:22;2.50;;;1.00;;
4889;SDS011;2459;42.268;23.112;2023-04-15T09:06:49;6.67;;;1.50;;
4889;SDS011;2459;42.268;23.112;2023-04-15T09:09:17;6.40;;;1.90;;
4889;SDS011;2459;42.268;23.112;2023-04-15T09:11:44;3.30;;;2.37;;
4889;SDS011;2459;42.268;23.112;2023-04-15T09:14:10;3.63;;;1.93;;
4889;SDS011;2459;42.268;23.112;2023-04-15T09:16:55;9.50;;;2.40;;
4889;SDS011;2459;42.268;23.112;2023-04-15T09:19:23;4.53;;;2.20;;
4889;SDS011;2459;42.268;23.112;2023-04-15T09:21:49;4.70;;;1.80;;
4889;SDS011;2459;42.268;23.112;2023-04-15T09:24:17;5.40;;;1.60;;
4889;SDS011;2459;42.268;23.112;2023-04-15T09:26:44;8.03;;;3.07;;
4889;SDS011;2459;42.268;23.112;2023-04-15T09:29:11;4.03;;;1.40;;
4889;SDS011;2459;42.268;23.112;2023-04-15T09:31:38;4.80;;;1.67;;
4889;SDS011;2459;42.268;23.112;2023-04-15T09:34:05;3.10;;;1.20;;
4889;SDS011;2459;42.268;23.112;2023-04-15T09:36:37;3.10;;;2.13;;
4889;SDS011;2459;42.268;23.112;2023-04-15T09:39:06;5.00;;;1.17;;
4889;SDS011;2459;42.268;23.112;2023-04-15T09:41:34;3.67;;;1.63;;
4889;SDS011;2459;42.268;23.112;2023-04-15T09:44:01;42.23;;;22.50;;
4889;SDS011;2459;42.268;23.112;2023-04-15T09:46:40;3.33;;;1.63;;
4889;SDS011;2459;42.268;23.112;2023-04-15T09:49:07;15.00;;;3.87;;
4889;SDS011;2459;42.268;23.112;2023-04-15T09:51:34;2.90;;;1.33;;
4889;SDS011;2459;42.268;23.112;2023-04-15T09:54:01;12.47;;;2.60;;
4889;SDS011;2459;42.268;23.112;2023-04-15T09:56:33;7.80;;;2.73;;
4889;SDS011;2459;42.268;23.112;2023-04-15T09:59:01;5.90;;;1.70;;
4889;SDS011;2459;42.268;23.112;2023-04-15T10:01:28;5.03;;;1.73;;
4889;SDS011;2459;42.268;23.112;2023-04-15T10:03:55;4.20;;;2.00;;
4889;SDS011;2459;42.268;23.112;2023-04-15T10:06:22;5.17;;;1.50;;
4889;SDS011;2459;42.268;23.112;2023-04-15T10:08:49;3.67;;;1.80;;
4889;SDS011;2459;42.268;23.112;2023-04-15T10:11:16;2.50;;;1.50;;
4889;SDS011;2459;42.268;23.112;2023-04-15T10:13:42;4.97;;;1.73;;
4889;SDS011;2459;42.268;23.112;2023-04-15T10:16:13;2.70;;;1.50;;
4889;SDS011;2459;42.268;23.112;2023-04-15T10:18:41;1.50;;;1.40;;
4889;SDS011;2459;42.268;23.112;2023-04-15T10:21:08;4.03;;;1.73;;
4889;SDS011;2459;42.268;23.112;2023-04-15T10:23:34;12.97;;;1.50;;
4889;SDS011;2459;42.268;23.112;2023-04-15T10:26:01;5.90;;;1.80;;
4889;SDS011;2459;42.268;23.112;2023-04-15T10:28:29;6.30;;;1.30;;
4889;SDS011;2459;42.268;23.112;2023-04-15T10:30:56;2.40;;;1.33;;
4889;SDS011;2459;42.268;23.112;2023-04-15T10:33:27;4.17;;;1.17;;
4889;SDS011;2459;42.268;23.112;2023-04-15T10:35:55;2.10;;;0.97;;
4889;SDS011;2459;42.268;23.112;2023-04-15T10:38:30;8.77;;;1.13;;
4889;SDS011;2459;42.268;23.112;2023-04-15T10:41:10;10.60;;;1.40;;
4889;SDS011;2459;42.268;23.112;2023-04-15T10:43:37;1.40;;;1.17;;
4889;SDS011;2459;42.268;23.112;2023-04-15T10:46:04;3.13;;;0.80;;
4889;SDS011;2459;42.268;23.112;2023-04-15T10:48:32;2.13;;;1.30;;
4889;SDS011;2459;42.268;23.112;2023-04-15T10:50:59;3.33;;;1.10;;
4889;SDS011;2459;42.268;23.112;2023-04-15T10:53:27;1.00;;;0.80;;
4889;SDS011;2459;42.268;23.112;2023-04-15T10:55:54;4.80;;;1.60;;
4889;SDS011;2459;42.268;23.112;2023-04-15T10:58:22;9.33;;;1.50;;
4889;SDS011;2459;42.268;23.112;2023-04-15T11:00:49;2.60;;;1.67;;
4889;SDS011;2459;42.268;23.112;2023-04-15T11:03:16;3.00;;;1.23;;
4889;SDS011;2459;42.268;23.112;2023-04-15T11:05:50;2.40;;;1.10;;
4889;SDS011;2459;42.268;23.112;2023-04-15T11:08:17;8.30;;;1.40;;
4889;SDS011;2459;42.268;23.112;2023-04-15T11:10:52;3.57;;;1.00;;
4889;SDS011;2459;42.268;23.112;2023-04-15T11:13:20;7.00;;;1.40;;
4889;SDS011;2459;42.268;23.112;2023-04-15T11:15:47;2.43;;;1.60;;
4889;SDS011;2459;42.268;23.112;2023-04-15T11:18:16;6.60;;;1.40;;
4889;SDS011;2459;42.268;23.112;2023-04-15T11:20:43;1.53;;;1.43;;
4889;SDS011;2459;42.268;23.112;2023-04-15T11:23:12;2.30;;;1.20;;
4889;SDS011;2459;42.268;23.112;2023-04-15T11:25:38;6.33;;;1.27;;
4889;SDS011;2459;42.268;23.112;2023-04-15T11:28:05;6.23;;;1.53;;
4889;SDS011;2459;42.268;23.112;2023-04-15T11:30:33;2.80;;;1.30;;
4889;SDS011;2459;42.268;23.112;2023-04-15T11:33:00;2.83;;;1.50;;
4889;SDS011;2459;42.268;23.112;2023-04-15T11:35:27;2.10;;;1.53;;
4889;SDS011;2459;42.268;23.112;2023-04-15T11:37:55;2.20;;;1.53;;
4889;SDS011;2459;42.268;23.112;2023-04-15T11:40:24;3.43;;;1.07;;
4889;SDS011;2459;42.268;23.112;2023-04-15T11:43:05;2.80;;;1.10;;
4889;SDS011;2459;42.268;23.112;2023-04-15T11:45:32;3.80;;;1.17;;
4889;SDS011;2459;42.268;23.112;2023-04-15T11:48:04;4.70;;;1.70;;
4889;SDS011;2459;42.268;23.112;2023-04-15T11:50:30;4.20;;;1.00;;
4889;SDS011;2459;42.268;23.112;2023-04-15T11:53:02;4.27;;;1.40;;
4889;SDS011;2459;42.268;23.112;2023-04-15T11:55:30;10.83;;;4.23;;
4889;SDS011;2459;42.268;23.112;2023-04-15T11:58:09;4.90;;;1.27;;
4889;SDS011;2459;42.268;23.112;2023-04-15T12:00:36;2.23;;;1.27;;
4889;SDS011;2459;42.268;23.112;2023-04-15T12:03:16;3.60;;;2.03;;
4889;SDS011;2459;42.268;23.112;2023-04-15T12:06:02;3.90;;;1.00;;
4889;SDS011;2459;42.268;23.112;2023-04-15T12:11:13;2.10;;;1.03;;
4889;SDS011;2459;42.268;23.112;2023-04-15T12:13:43;2.90;;;1.30;;
4889;SDS011;2459;42.268;23.112;2023-04-15T12:16:11;1.40;;;1.27;;
4889;SDS011;2459;42.268;23.112;2023-04-15T12:18:37;5.07;;;2.47;;
4889;SDS011;2459;42.268;23.112;2023-04-15T12:21:08;15.80;;;2.07;;
4889;SDS011;2459;42.268;23.112;2023-04-15T12:23:35;3.87;;;2.10;;
4889;SDS011;2459;42.268;23.112;2023-04-15T12:26:03;8.53;;;2.33;;
4889;SDS011;2459;42.268;23.112;2023-04-15T12:28:32;7.77;;;1.37;;
4889;SDS011;2459;42.268;23.112;2023-04-15T12:30:59;5.27;;;2.60;;
4889;SDS011;2459;42.268;23.112;2023-04-15T12:33:31;2.67;;;1.50;;
4889;SDS011;2459;42.268;23.112;2023-04-15T12:35:58;8.67;;;2.63;;
4889;SDS011;2459;42.268;23.112;2023-04-15T12:38:24;2.10;;;1.83;;
4889;SDS011;2459;42.268;23.112;2023-04-15T12:40:51;7.83;;;2.03;;
4889;SDS011;2459;42.268;23.112;2023-04-15T12:43:17;1.93;;;1.00;;
4889;SDS011;2459;42.268;23.112;2023-04-15T12:45:45;5.27;;;1.70;;
4889;SDS011;2459;42.268;23.112;2023-04-15T12:48:11;3.60;;;1.47;;
4889;SDS011;2459;42.268;23.112;2023-04-15T12:50:38;11.13;;;1.90;;
4889;SDS011;2459;42.268;23.112;2023-04-15T12:53:04;5.00;;;1.43;;
4889;SDS011;2459;42.268;23.112;2023-04-15T12:55:31;4.17;;;1.70;;
4889;SDS011;2459;42.268;23.112;2023-04-15T12:57:57;5.10;;;1.90;;
4889;SDS011;2459;42.268;23.112;2023-04-15T13:00:24;4.90;;;1.70;;
4889;SDS011;2459;42.268;23.112;2023-04-15T13:02:52;1.93;;;1.00;;
4889;SDS011;2459;42.268;23.112;2023-04-15T13:05:19;6.47;;;1.83;;
4889;SDS011;2459;42.268;23.112;2023-04-15T13:07:45;17.27;;;3.87;;
4889;SDS011;2459;42.268;23.112;2023-04-15T13:10:12;9.13;;;1.80;;
4889;SDS011;2459;42.268;23.112;2023-04-15T13:12:38;2.53;;;1.67;;
4889;SDS011;2459;42.268;23.112;2023-04-15T13:15:06;6.37;;;1.60;;
4889;SDS011;2459;42.268;23.112;2023-04-15T13:17:34;13.50;;;2.83;;
4889;SDS011;2459;42.268;23.112;2023-04-15T13:20:06;3.73;;;2.17;;
4889;SDS011;2459;42.268;23.112;2023-04-15T13:22:33;2.93;;;1.70;;
4889;SDS011;2459;42.268;23.112;2023-04-15T13:25:00;7.80;;;2.10;;
4889;SDS011;2459;42.268;23.112;2023-04-15T13:27:27;5.30;;;3.13;;
4889;SDS011;2459;42.268;23.112;2023-04-15T13:29:53;13.73;;;9.30;;
4889;SDS011;2459;42.268;23.112;2023-04-15T13:32:22;4.27;;;1.60;;
4889;SDS011;2459;42.268;23.112;2023-04-15T13:34:49;2.47;;;1.60;;
4889;SDS011;2459;42.268;23.112;2023-04-15T13:37:17;2.80;;;1.63;;
4889;SDS011;2459;42.268;23.112;2023-04-15T13:39:43;2.67;;;1.40;;
4889;SDS011;2459;42.268;23.112;2023-04-15T13:42:10;9.60;;;2.30;;
4889;SDS011;2459;42.268;23.112;2023-04-15T13:44:36;16.60;;;5.13;;
4889;SDS011;2459;42.268;23.112;2023-04-15T13:47:03;2.77;;;1.70;;
4889;SDS011;2459;42.268;23.112;2023-04-15T13:49:33;2.40;;;1.60;;
4889;SDS011;2459;42.268;23.112;2023-04-15T13:52:00;7.63;;;2.50;;
4889;SDS011;2459;42.268;23.112;2023-04-15T13:54:28;3.00;;;1.83;;
4889;SDS011;2459;42.268;23.112;2023-04-15T13:56:54;4.23;;;1.83;;
4889;SDS011;2459;42.268;23.112;2023-04-15T13:59:22;6.47;;;2.53;;
4889;SDS011;2459;42.268;23.112;2023-04-15T14:01:48;6.63;;;2.17;;
4889;SDS011;2459;42.268;23.112;2023-04-15T14:04:17;6.10;;;2.50;;
4889;SDS011;2459;42.268;23.112;2023-04-15T14:06:44;11.30;;;3.00;;
4889;SDS011;2459;42.268;23.112;2023-04-15T14:09:10;5.93;;;2.80;;
4889;SDS011;2459;42.268;23.112;2023-04-15T14:11:38;3.70;;;1.27;;
4889;SDS011;2459;42.268;23.112;2023-04-15T14:14:05;5.63;;;1.93;;
4889;SDS011;2459;42.268;23.112;2023-04-15T14:16:32;3.80;;;1.70;;
4889;SDS011;2459;42.268;23.112;2023-04-15T14:18:58;4.30;;;1.60;;
4889;SDS011;2459;42.268;23.112;2023-04-15T14:21:25;8.80;;;4.77;;
4889;SDS011;2459;42.268;23.112;2023-04-15T14:23:52;4.73;;;2.67;;
4889;SDS011;2459;42.268;23.112;2023-04-15T14:26:19;5.70;;;2.97;;
4889;SDS011;2459;42.268;23.112;2023-04-15T14:28:46;7.33;;;3.90;;
4889;SDS011;2459;42.268;23.112;2023-04-15T14:31:13;6.03;;;2.97;;
4889;SDS011;2459;42.268;23.112;2023-04-15T14:33:40;9.27;;;2.10;;
4889;SDS011;2459;42.268;23.112;2023-04-15T14:36:07;3.17;;;1.53;;
4889;SDS011;2459;42.268;23.112;2023-04-15T14:38:34;5.33;;;3.50;;
4889;SDS011;2459;42.268;23.112;2023-04-15T14:41:02;7.43;;;4.70;;
4889;SDS011;2459;42.268;23.112;2023-04-15T14:43:28;3.60;;;3.03;;
4889;SDS011;2459;42.268;23.112;2023-04-15T14:45:56;2.33;;;1.77;;
4889;SDS011;2459;42.268;23.112;2023-04-15T14:48:23;4.37;;;2.57;;
4889;SDS011;2459;42.268;23.112;2023-04-15T14:50:49;6.80;;;2.93;;
4889;SDS011;2459;42.268;23.112;2023-04-15T14:53:16;15.97;;;6.40;;
4889;SDS011;2459;42.268;23.112;2023-04-15T14:55:42;25.93;;;4.17;;